createdAt,value
2023-05-26T00:01:04.151Z,13.40
2023-05-26T00:03:31.603Z,13.80
2023-05-26T00:05:59.035Z,15.00
2023-05-26T00:08:26.372Z,15.30
2023-05-26T00:10:53.924Z,17.00
2023-05-26T00:13:21.214Z,19.70
2023-05-26T00:15:48.710Z,35.60
2023-05-26T00:18:16.303Z,19.80
2023-05-26T00:20:43.718Z,20.60
2023-05-26T00:23:11.062Z,19.90
2023-05-26T00:25:38.332Z,18.40
2023-05-26T00:28:05.660Z,19.80
2023-05-26T00:30:32.931Z,16.60
2023-05-26T00:33:00.263Z,15.10
2023-05-26T00:35:27.613Z,17.70
2023-05-26T00:37:54.985Z,17.30
2023-05-26T00:40:22.278Z,15.50
2023-05-26T00:42:49.725Z,14.70
2023-05-26T00:45:16.955Z,15.30
2023-05-26T00:47:44.242Z,14.90
2023-05-26T00:50:17.861Z,14.90
2023-05-26T00:52:45.762Z,15.60
2023-05-26T00:55:13.243Z,17.60
2023-05-26T00:57:40.612Z,17.50
2023-05-26T01:00:11.511Z,15.40
2023-05-26T01:02:41.079Z,16.00
2023-05-26T01:05:09.996Z,22.10
2023-05-26T01:07:37.719Z,24.90
2023-05-26T01:10:05.742Z,25.00
2023-05-26T01:12:36.119Z,24.30
2023-05-26T01:15:29.985Z,25.50
2023-05-26T01:18:18.321Z,25.70
2023-05-26T01:20:55.117Z,26.10
2023-05-26T01:24:00.807Z,26.90
2023-05-26T01:26:39.742Z,28.60
2023-05-26T01:29:12.239Z,28.80
2023-05-26T01:31:40.578Z,28.90
2023-05-26T01:34:08.364Z,29.20
2023-05-26T01:36:36.991Z,29.30
2023-05-26T01:39:09.099Z,26.70
2023-05-26T01:41:44.238Z,25.70
2023-05-26T01:44:49.644Z,25.30
2023-05-26T01:47:17.457Z,26.70
2023-05-26T01:49:48.167Z,46.40
2023-05-26T01:52:18.462Z,34.40
2023-05-26T01:55:01.276Z,33.10
2023-05-26T01:57:30.158Z,30.60
2023-05-26T01:59:57.633Z,29.70
2023-05-26T02:02:24.958Z,27.90
2023-05-26T02:04:52.283Z,26.80
2023-05-26T02:07:20.275Z,25.90
2023-05-26T02:09:47.595Z,24.40
2023-05-26T02:12:14.867Z,26.90
2023-05-26T02:14:42.099Z,27.70
2023-05-26T02:17:11.904Z,30.30
2023-05-26T02:19:39.378Z,29.20
2023-05-26T02:22:06.632Z,25.50
2023-05-26T02:24:34.048Z,27.90
2023-05-26T02:27:01.453Z,31.70
2023-05-26T02:29:28.701Z,37.70
2023-05-26T02:31:56.030Z,40.70
2023-05-26T02:34:23.311Z,38.10
2023-05-26T02:36:50.629Z,38.60
2023-05-26T02:39:18.775Z,39.40
2023-05-26T02:41:46.210Z,41.80
2023-05-26T02:44:14.912Z,40.30
2023-05-26T02:46:42.281Z,39.20
2023-05-26T02:49:09.594Z,39.80
2023-05-26T02:51:37.254Z,43.00
2023-05-26T02:54:04.558Z,45.80
2023-05-26T02:56:31.848Z,45.10
2023-05-26T02:58:59.132Z,45.10
2023-05-26T03:01:26.539Z,42.80
2023-05-26T03:03:53.920Z,42.80
2023-05-26T03:06:21.423Z,42.90
2023-05-26T03:08:48.652Z,42.50
2023-05-26T03:11:16.117Z,35.10
2023-05-26T03:13:43.386Z,33.10
2023-05-26T03:16:11.590Z,32.60
2023-05-26T03:18:39.315Z,35.00
2023-05-26T03:21:47.180Z,33.50
2023-05-26T03:24:13.006Z,34.00
2023-05-26T03:26:40.642Z,32.90
2023-05-26T03:29:07.901Z,32.10
2023-05-26T03:31:35.230Z,29.70
2023-05-26T03:34:02.580Z,30.90
2023-05-26T03:36:30.052Z,34.40
2023-05-26T03:38:57.342Z,35.60
2023-05-26T03:41:25.199Z,38.10
2023-05-26T03:43:52.517Z,40.40
2023-05-26T03:46:19.930Z,43.90
2023-05-26T03:49:06.051Z,46.30
2023-05-26T03:51:51.644Z,50.00
2023-05-26T03:54:37.025Z,59.70
2023-05-26T03:57:04.607Z,71.20
2023-05-26T03:59:31.951Z,67.10
2023-05-26T04:01:59.763Z,64.00
2023-05-26T04:04:27.121Z,56.20
2023-05-26T04:06:54.402Z,56.70
2023-05-26T04:09:21.769Z,54.60
2023-05-26T04:11:48.985Z,50.20
2023-05-26T04:14:17.576Z,45.60
2023-05-26T04:16:45.073Z,39.20
2023-05-26T04:19:12.394Z,38.50
2023-05-26T04:21:39.652Z,37.30
2023-05-26T04:24:07.284Z,37.30
2023-05-26T04:26:34.761Z,37.10
2023-05-26T04:29:03.087Z,37.20
2023-05-26T04:31:30.632Z,38.80
2023-05-26T04:33:58.636Z,40.10
2023-05-26T04:36:26.383Z,35.90
2023-05-26T04:38:56.032Z,34.90
2023-05-26T04:41:23.320Z,35.00
2023-05-26T04:43:50.728Z,35.60
2023-05-26T04:46:18.115Z,40.60
2023-05-26T04:48:45.437Z,38.60
2023-05-26T04:51:12.714Z,57.40
2023-05-26T04:53:40.050Z,38.10
2023-05-26T04:56:07.524Z,37.70
2023-05-26T04:58:34.838Z,36.90
2023-05-26T05:01:04.654Z,37.80
2023-05-26T05:03:35.694Z,36.80
2023-05-26T05:06:03.310Z,34.30
2023-05-26T05:08:31.288Z,31.50
2023-05-26T05:10:58.665Z,29.60
2023-05-26T05:13:25.904Z,29.60
2023-05-26T05:15:53.168Z,29.60
2023-05-26T05:18:20.404Z,29.50
2023-05-26T05:20:47.879Z,29.10
2023-05-26T05:23:15.407Z,28.60
2023-05-26T05:25:43.375Z,45.90
2023-05-26T05:28:11.661Z,28.50
2023-05-26T05:30:41.064Z,28.10
2023-05-26T05:33:09.341Z,27.60
2023-05-26T05:35:36.817Z,27.10
2023-05-26T05:38:04.768Z,27.00
2023-05-26T05:40:32.066Z,25.80
2023-05-26T05:42:59.326Z,25.70
2023-05-26T05:45:26.560Z,27.20
2023-05-26T05:47:53.837Z,26.20
2023-05-26T05:50:21.383Z,25.10
2023-05-26T05:52:48.868Z,24.80
2023-05-26T05:55:16.474Z,24.50
2023-05-26T05:57:43.743Z,23.00
2023-05-26T06:00:12.279Z,22.60
2023-05-26T06:02:39.786Z,23.70
2023-05-26T06:05:07.374Z,23.70
2023-05-26T06:07:34.641Z,22.50
2023-05-26T06:10:02.036Z,22.30
2023-05-26T06:12:29.506Z,21.90
2023-05-26T06:14:56.911Z,22.20
2023-05-26T06:17:24.303Z,23.50
2023-05-26T06:19:51.610Z,24.40
2023-05-26T06:22:18.875Z,24.00
2023-05-26T06:24:46.171Z,23.00
2023-05-26T06:27:16.502Z,23.60
2023-05-26T06:29:44.101Z,24.10
2023-05-26T06:32:11.361Z,24.30
2023-05-26T06:34:38.653Z,24.60
2023-05-26T06:37:05.927Z,24.30
2023-05-26T06:39:33.182Z,23.70
2023-05-26T06:42:00.606Z,23.20
2023-05-26T06:44:28.003Z,24.30
2023-05-26T06:46:55.508Z,22.80
2023-05-26T06:49:22.734Z,21.30
2023-05-26T06:51:50.156Z,21.80
2023-05-26T06:54:17.600Z,20.60
2023-05-26T06:56:45.071Z,20.10
2023-05-26T06:59:12.510Z,20.90
2023-05-26T07:01:39.801Z,20.90
2023-05-26T07:04:07.148Z,19.30
2023-05-26T07:06:46.783Z,19.40
2023-05-26T07:09:15.428Z,19.80
2023-05-26T07:11:42.662Z,19.80
2023-05-26T07:14:09.926Z,20.20
2023-05-26T07:16:37.255Z,20.00
2023-05-26T07:19:04.856Z,17.80
2023-05-26T07:21:32.399Z,17.30
2023-05-26T07:24:00.159Z,17.10
2023-05-26T07:26:27.513Z,17.60
2023-05-26T07:28:56.223Z,17.80
2023-05-26T07:31:25.687Z,17.10
2023-05-26T07:33:53.008Z,18.00
2023-05-26T07:36:20.373Z,17.10
2023-05-26T07:38:47.710Z,18.50
2023-05-26T07:41:15.088Z,17.40
2023-05-26T07:43:42.353Z,17.20
2023-05-26T07:46:09.739Z,18.90
2023-05-26T07:48:37.095Z,19.20
2023-05-26T07:51:04.448Z,17.50
2023-05-26T07:53:31.705Z,17.80
2023-05-26T07:55:59.005Z,18.00
2023-05-26T07:58:26.229Z,19.30
2023-05-26T08:00:53.504Z,19.90
2023-05-26T08:03:21.035Z,19.40
2023-05-26T08:05:49.277Z,18.80
2023-05-26T08:08:16.950Z,19.50
2023-05-26T08:10:44.297Z,20.00
2023-05-26T08:13:11.628Z,21.20
2023-05-26T08:15:39.008Z,20.70
2023-05-26T08:18:06.485Z,22.30
2023-05-26T08:20:34.024Z,22.40
2023-05-26T08:23:01.569Z,21.80
2023-05-26T08:25:28.894Z,23.00
2023-05-26T08:27:56.179Z,24.30
2023-05-26T08:30:23.559Z,24.20
2023-05-26T08:32:51.180Z,24.10
2023-05-26T08:35:18.497Z,22.30
2023-05-26T08:37:45.896Z,23.90
2023-05-26T08:40:15.809Z,20.80
2023-05-26T08:42:47.637Z,18.80
2023-05-26T08:45:16.273Z,18.30
2023-05-26T08:47:44.098Z,16.50
2023-05-26T08:50:12.543Z,15.50
2023-05-26T08:52:47.953Z,15.20
2023-05-26T08:55:21.751Z,15.90
2023-05-26T08:57:50.007Z,15.00
2023-05-26T09:02:47.182Z,18.00
2023-05-26T09:05:15.806Z,19.50
2023-05-26T09:07:43.233Z,20.00
2023-05-26T09:10:23.919Z,20.30
2023-05-26T09:13:08.973Z,21.00
2023-05-26T09:15:38.475Z,20.90
2023-05-26T09:18:07.475Z,22.00
2023-05-26T09:20:42.002Z,21.70
2023-05-26T09:23:09.542Z,23.50
2023-05-26T09:25:38.813Z,24.80
2023-05-26T09:28:15.605Z,23.10
2023-05-26T09:30:47.932Z,20.50
2023-05-26T09:33:18.239Z,35.40
2023-05-26T09:35:47.824Z,16.80
2023-05-26T09:38:17.461Z,18.60
2023-05-26T09:40:51.240Z,15.80
2023-05-26T09:43:23.634Z,17.10
2023-05-26T09:45:51.501Z,17.50
2023-05-26T09:48:18.849Z,16.00
2023-05-26T09:50:46.151Z,15.50
2023-05-26T09:53:13.438Z,16.80
2023-05-26T09:55:42.133Z,14.30
2023-05-26T09:58:11.642Z,17.10
2023-05-26T10:00:41.803Z,18.30
2023-05-26T10:03:10.733Z,17.60
2023-05-26T10:05:40.907Z,14.80
2023-05-26T10:08:09.337Z,13.90
2023-05-26T10:10:38.088Z,15.90
2023-05-26T10:13:08.023Z,14.20
2023-05-26T10:15:35.455Z,13.60
2023-05-26T10:18:03.774Z,15.70
2023-05-26T10:20:31.943Z,16.00
2023-05-26T10:23:12.778Z,15.50
2023-05-26T10:25:58.397Z,17.70
2023-05-26T10:28:35.164Z,16.10
2023-05-26T10:31:03.268Z,15.90
2023-05-26T10:33:43.324Z,15.60
2023-05-26T10:36:15.550Z,17.30
2023-05-26T10:38:47.892Z,18.90
2023-05-26T10:41:33.339Z,18.50
2023-05-26T10:44:02.047Z,16.80
2023-05-26T10:46:59.727Z,14.20
2023-05-26T10:49:27.191Z,14.70
2023-05-26T10:51:56.099Z,13.00
2023-05-26T10:54:26.277Z,13.80
2023-05-26T10:56:55.324Z,17.60
2023-05-26T10:59:29.739Z,22.50
2023-05-26T11:02:04.785Z,20.60
2023-05-26T11:04:48.749Z,20.20
2023-05-26T11:07:23.566Z,20.30
2023-05-26T11:10:09.940Z,19.20
2023-05-26T11:12:49.278Z,21.70
2023-05-26T11:15:27.472Z,19.70
2023-05-26T11:18:01.173Z,16.60
2023-05-26T11:20:29.125Z,14.60
2023-05-26T11:22:57.215Z,15.70
2023-05-26T11:25:26.916Z,15.60
2023-05-26T11:27:54.488Z,14.90
2023-05-26T11:30:22.856Z,15.90
2023-05-26T11:32:52.006Z,11.80
2023-05-26T11:35:30.252Z,11.00
2023-05-26T11:37:57.594Z,11.90
2023-05-26T11:40:24.942Z,9.50
2023-05-26T11:42:56.403Z,7.60
2023-05-26T11:45:24.595Z,8.00
2023-05-26T11:47:52.587Z,8.80
2023-05-26T11:50:20.450Z,7.40
2023-05-26T11:52:49.182Z,22.10
2023-05-26T11:55:21.087Z,7.50
2023-05-26T11:57:49.375Z,8.50
2023-05-26T12:00:19.894Z,8.50
2023-05-26T12:02:48.337Z,21.00
2023-05-26T12:05:27.883Z,6.20
2023-05-26T12:08:09.173Z,7.90
2023-05-26T12:10:37.281Z,6.70
2023-05-26T12:13:04.587Z,9.10
2023-05-26T12:15:31.945Z,7.80
2023-05-26T12:18:01.897Z,8.60
2023-05-26T12:20:43.398Z,9.40
2023-05-26T12:23:12.990Z,10.40
2023-05-26T12:25:40.726Z,11.60
2023-05-26T12:28:08.078Z,12.00
2023-05-26T12:30:48.470Z,14.40
2023-05-26T12:33:17.290Z,16.70
2023-05-26T12:35:45.401Z,16.70
2023-05-26T12:38:14.282Z,19.30
2023-05-26T12:40:42.111Z,20.20
2023-05-26T12:43:09.552Z,18.70
2023-05-26T12:45:36.844Z,14.10
2023-05-26T12:48:04.588Z,9.90
2023-05-26T12:50:32.083Z,8.00
2023-05-26T12:52:59.278Z,5.60
2023-05-26T12:55:26.644Z,5.40
2023-05-26T12:57:53.914Z,3.20
2023-05-26T13:00:21.708Z,2.00
2023-05-26T13:02:49.162Z,1.80
2023-05-26T13:05:17.995Z,1.20
2023-05-26T13:07:45.389Z,1.40
2023-05-26T13:10:13.271Z,1.00
2023-05-26T13:12:42.781Z,1.00
2023-05-26T13:15:10.612Z,1.00
2023-05-26T13:17:38.099Z,1.00
2023-05-26T13:20:08.417Z,1.00
2023-05-26T13:22:37.244Z,1.00
2023-05-26T13:25:04.885Z,1.00
2023-05-26T13:27:32.120Z,1.00
2023-05-26T13:29:59.403Z,1.00
2023-05-26T13:32:27.010Z,1.00
2023-05-26T13:34:54.489Z,1.00
2023-05-26T13:37:22.494Z,1.00
2023-05-26T13:39:50.356Z,1.00
2023-05-26T13:42:17.686Z,1.00
2023-05-26T13:44:45.021Z,1.00
2023-05-26T13:47:12.321Z,1.00
2023-05-26T13:49:39.747Z,1.00
2023-05-26T13:52:07.558Z,1.00
2023-05-26T13:54:34.998Z,2.40
2023-05-26T13:57:02.372Z,3.80
2023-05-26T13:59:31.210Z,8.00
2023-05-26T14:02:16.965Z,7.80
2023-05-26T14:05:04.145Z,5.00
2023-05-26T14:07:31.579Z,1.30
2023-05-26T14:09:59.014Z,1.00
2023-05-26T14:12:27.008Z,1.00
2023-05-26T14:14:54.364Z,1.00
2023-05-26T14:17:21.896Z,1.00
2023-05-26T14:19:49.203Z,1.00
2023-05-26T14:22:17.529Z,1.00
2023-05-26T14:24:48.493Z,1.00
2023-05-26T14:27:15.945Z,1.00
2023-05-26T14:29:43.234Z,1.00
2023-05-26T14:32:10.843Z,1.00
2023-05-26T14:34:38.210Z,1.00
2023-05-26T14:37:05.823Z,1.00
2023-05-26T14:39:33.138Z,1.00
2023-05-26T14:42:00.641Z,1.00
2023-05-26T14:44:27.827Z,1.00
2023-05-26T14:46:56.673Z,1.00
2023-05-26T14:49:24.102Z,1.00
2023-05-26T14:51:51.419Z,1.00
2023-05-26T14:54:19.588Z,1.00
2023-05-26T14:56:47.189Z,1.00
2023-05-26T14:59:14.845Z,1.00
2023-05-26T15:01:42.475Z,1.00
2023-05-26T15:04:15.470Z,1.00
2023-05-26T15:06:43.968Z,1.00
2023-05-26T15:09:11.372Z,1.00
2023-05-26T15:11:38.881Z,1.00
2023-05-26T15:14:07.557Z,1.00
2023-05-26T15:16:35.248Z,1.00
2023-05-26T15:19:03.431Z,1.00
2023-05-26T15:24:04.580Z,1.00
2023-05-26T15:26:33.593Z,1.00
2023-05-26T15:29:01.191Z,1.00
2023-05-26T15:31:28.469Z,1.00
2023-05-26T15:33:55.804Z,1.00
2023-05-26T15:36:25.158Z,1.00
2023-05-26T15:38:55.607Z,1.00
2023-05-26T15:44:12.111Z,1.00
2023-05-26T15:46:41.520Z,1.00
2023-05-26T15:48:11.677Z,1.00
2023-05-26T15:49:12.956Z,1.00
2023-05-26T15:51:40.255Z,1.00
2023-05-26T15:54:07.532Z,1.00
2023-05-26T15:56:35.137Z,1.00
2023-05-26T15:59:02.404Z,1.00
2023-05-26T16:01:29.781Z,9.80
2023-05-26T16:03:57.283Z,1.00
2023-05-26T16:06:24.668Z,1.00
2023-05-26T16:08:51.969Z,1.00
2023-05-26T16:11:19.468Z,1.00
2023-05-26T16:13:47.536Z,1.00
2023-05-26T16:16:15.438Z,4.00
2023-05-26T16:18:43.010Z,6.20
2023-05-26T16:21:10.411Z,8.90
2023-05-26T16:23:37.737Z,11.30
2023-05-26T16:26:05.484Z,11.70
2023-05-26T16:28:32.768Z,15.70
2023-05-26T16:31:00.113Z,12.30
2023-05-26T16:33:27.487Z,12.80
2023-05-26T16:35:56.503Z,14.70
2023-05-26T16:38:25.278Z,17.00
2023-05-26T16:40:52.607Z,16.10
2023-05-26T16:43:32.055Z,17.90
2023-05-26T16:46:07.595Z,17.50
2023-05-26T16:48:35.913Z,16.00
2023-05-26T16:51:03.318Z,19.90
2023-05-26T16:53:30.603Z,21.40
2023-05-26T16:55:58.120Z,18.00
2023-05-26T16:58:25.519Z,16.70
2023-05-26T17:00:52.794Z,16.00
2023-05-26T17:03:20.373Z,13.10
2023-05-26T17:05:47.824Z,12.40
2023-05-26T17:08:15.470Z,10.00
2023-05-26T17:11:01.424Z,8.20
2023-05-26T17:13:47.296Z,3.40
2023-05-26T17:16:14.717Z,5.20
2023-05-26T17:18:42.093Z,4.40
2023-05-26T17:21:09.403Z,1.20
2023-05-26T17:23:38.920Z,1.90
2023-05-26T17:26:06.987Z,1.00
2023-05-26T17:28:36.751Z,1.00
2023-05-26T17:31:04.094Z,1.00
2023-05-26T17:33:31.561Z,1.00
2023-05-26T17:35:58.976Z,1.00
2023-05-26T17:38:26.588Z,1.00
2023-05-26T17:40:53.928Z,1.00
2023-05-26T17:43:21.359Z,1.00
2023-05-26T17:45:48.644Z,1.00
2023-05-26T17:48:16.122Z,1.00
2023-05-26T17:50:43.347Z,1.00
2023-05-26T17:53:10.632Z,1.00
2023-05-26T17:55:38.507Z,1.00
2023-05-26T17:58:05.858Z,1.00
2023-05-26T18:00:33.150Z,1.00
2023-05-26T18:03:00.610Z,1.00
2023-05-26T18:05:27.930Z,1.00
2023-05-26T18:07:55.161Z,1.00
2023-05-26T18:10:22.467Z,1.00
2023-05-26T18:12:49.910Z,1.00
2023-05-26T18:15:17.316Z,1.00
2023-05-26T18:17:44.614Z,1.00
2023-05-26T18:20:12.400Z,1.00
2023-05-26T18:22:39.801Z,1.00
2023-05-26T18:25:07.327Z,1.00
2023-05-26T18:27:34.539Z,1.00
2023-05-26T18:30:03.137Z,1.00
2023-05-26T18:32:30.832Z,1.00
2023-05-26T18:34:58.144Z,1.00
2023-05-26T18:37:25.484Z,1.00
2023-05-26T18:39:53.457Z,1.00
2023-05-26T18:42:22.689Z,1.00
2023-05-26T18:44:50.824Z,1.00
2023-05-26T18:47:18.199Z,1.00
2023-05-26T18:49:45.414Z,1.00
2023-05-26T18:52:12.784Z,1.00
2023-05-26T18:54:40.060Z,1.00
2023-05-26T18:57:07.733Z,1.00
2023-05-26T18:59:34.992Z,1.00
2023-05-26T19:02:02.668Z,1.00
2023-05-26T19:04:30.427Z,1.00
2023-05-26T19:06:57.881Z,1.00
2023-05-26T19:09:25.721Z,1.00
2023-05-26T19:11:54.320Z,1.00
2023-05-26T19:14:21.704Z,1.00
2023-05-26T19:16:49.390Z,1.00
2023-05-26T19:19:17.271Z,1.00
2023-05-26T19:21:44.601Z,1.00
2023-05-26T19:24:13.382Z,1.00
2023-05-26T19:26:41.565Z,1.00
2023-05-26T19:29:09.590Z,1.00
2023-05-26T19:31:37.371Z,1.00
2023-05-26T19:34:05.653Z,1.00
2023-05-26T19:36:32.960Z,1.00
2023-05-26T19:39:00.241Z,1.00
2023-05-26T19:41:27.902Z,1.00
2023-05-26T19:43:55.645Z,1.00
2023-05-26T19:46:23.206Z,1.00
2023-05-26T19:48:50.609Z,1.00
2023-05-26T19:51:17.981Z,1.00
2023-05-26T19:53:45.207Z,1.00
2023-05-26T19:56:12.517Z,1.00
2023-05-26T19:58:39.837Z,1.00
2023-05-26T20:01:07.327Z,1.00
2023-05-26T20:03:34.700Z,1.00
2023-05-26T20:06:02.129Z,1.00
2023-05-26T20:08:31.619Z,1.00
2023-05-26T20:10:59.332Z,1.00
2023-05-26T20:13:30.567Z,1.00
2023-05-26T20:15:58.036Z,1.00
2023-05-26T20:18:25.381Z,1.00
2023-05-26T20:20:53.111Z,1.00
2023-05-26T20:23:20.477Z,1.00
2023-05-26T20:25:49.770Z,1.00
2023-05-26T20:28:17.059Z,1.00
2023-05-26T20:30:44.574Z,1.00
2023-05-26T20:33:12.191Z,1.00
2023-05-26T20:35:39.999Z,1.00
2023-05-26T20:38:07.233Z,1.00
2023-05-26T20:40:34.640Z,1.00
2023-05-26T20:43:01.933Z,1.00
2023-05-26T20:45:29.341Z,1.00
2023-05-26T20:47:56.873Z,1.00
2023-05-26T20:50:24.546Z,1.00
2023-05-26T20:52:52.149Z,1.00
2023-05-26T20:55:19.832Z,1.00
2023-05-26T20:57:47.183Z,1.00
2023-05-26T21:00:15.650Z,1.00
2023-05-26T21:02:42.977Z,1.00
2023-05-26T21:05:10.615Z,1.00
2023-05-26T21:07:38.002Z,1.00
2023-05-26T21:10:05.845Z,1.00
2023-05-26T21:12:33.078Z,1.00
2023-05-26T21:15:00.683Z,1.00
2023-05-26T21:17:28.077Z,1.00
2023-05-26T21:19:55.653Z,1.00
2023-05-26T21:22:23.014Z,1.00
2023-05-26T21:24:50.545Z,1.00
2023-05-26T21:27:17.815Z,1.00
2023-05-26T21:29:45.354Z,1.00
2023-05-26T21:32:13.224Z,1.00
2023-05-26T21:34:40.511Z,1.00
2023-05-26T21:37:07.855Z,1.00
2023-05-26T21:39:36.193Z,1.00
2023-05-26T21:42:03.473Z,1.00
2023-05-26T21:44:30.784Z,1.00
2023-05-26T21:46:58.194Z,1.00
2023-05-26T21:49:25.627Z,1.00
2023-05-26T21:51:52.943Z,1.00
2023-05-26T21:54:20.191Z,1.00
2023-05-26T21:56:47.505Z,1.00
2023-05-26T21:59:14.877Z,1.00
2023-05-26T22:01:42.211Z,1.00
2023-05-26T22:04:09.500Z,1.00
2023-05-26T22:06:36.788Z,1.00
2023-05-26T22:09:04.294Z,1.00
2023-05-26T22:11:32.165Z,1.00
2023-05-26T22:14:01.046Z,1.00
2023-05-26T22:16:30.113Z,1.00
2023-05-26T22:18:57.507Z,1.00
2023-05-26T22:21:24.799Z,1.00
2023-05-26T22:23:52.125Z,1.00
2023-05-26T22:26:19.445Z,1.00
2023-05-26T22:28:47.017Z,1.00
2023-05-26T22:31:14.315Z,1.00
2023-05-26T22:33:41.622Z,1.00
2023-05-26T22:36:08.946Z,1.00
2023-05-26T22:38:36.157Z,1.00
2023-05-26T22:41:03.562Z,1.00
2023-05-26T22:43:30.855Z,1.00
2023-05-26T22:45:58.796Z,1.00
2023-05-26T22:48:26.274Z,1.00
2023-05-26T22:50:53.596Z,1.00
2023-05-26T22:53:21.037Z,1.00
2023-05-26T22:55:54.165Z,1.00
2023-05-26T22:58:28.146Z,1.00
2023-05-26T23:00:55.484Z,1.00
2023-05-26T23:03:22.941Z,1.00
2023-05-26T23:05:50.210Z,1.00
2023-05-26T23:08:17.632Z,1.00
2023-05-26T23:10:44.931Z,1.00
2023-05-26T23:13:12.265Z,1.00
2023-05-26T23:15:39.536Z,1.00
2023-05-26T23:18:06.838Z,1.00
2023-05-26T23:20:34.207Z,1.00
2023-05-26T23:23:01.659Z,1.00
2023-05-26T23:25:28.916Z,1.00
2023-05-26T23:27:56.227Z,1.00
2023-05-26T23:30:23.763Z,1.00
2023-05-26T23:32:51.097Z,1.00
2023-05-26T23:35:18.490Z,1.00
2023-05-26T23:37:45.901Z,1.00
2023-05-26T23:40:13.239Z,1.00
2023-05-26T23:42:40.859Z,1.00
2023-05-26T23:45:09.015Z,1.00
2023-05-26T23:47:36.379Z,1.00
2023-05-26T23:50:03.843Z,1.00
2023-05-26T23:52:31.197Z,1.00
2023-05-26T23:54:58.436Z,1.00
2023-05-26T23:57:26.246Z,1.00
2023-05-26T23:59:53.497Z,1.00
